sensor_id;sensor_type;location;lat;lon;timestamp;temperature;humidity
45435;DHT22;31183;47.404;8.500;2023-11-18T00:01:31;8.60;99.90
45435;DHT22;31183;47.404;8.500;2023-11-18T00:03:59;8.60;99.90
45435;DHT22;31183;47.404;8.500;2023-11-18T00:06:26;8.60;99.90
45435;DHT22;31183;47.404;8.500;2023-11-18T00:08:54;8.60;99.90
45435;DHT22;31183;47.404;8.500;2023-11-18T00:11:21;8.60;99.90
45435;DHT22;31183;47.404;8.500;2023-11-18T00:13:48;8.60;99.90
45435;DHT22;31183;47.404;8.500;2023-11-18T00:16:15;8.60;99.90
45435;DHT22;31183;47.404;8.500;2023-11-18T00:18:43;8.60;99.90
45435;DHT22;31183;47.404;8.500;2023-11-18T00:21:10;8.60;99.90
45435;DHT22;31183;47.404;8.500;2023-11-18T00:23:36;8.60;99.90
45435;DHT22;31183;47.404;8.500;2023-11-18T00:26:03;8.50;99.90
45435;DHT22;31183;47.404;8.500;2023-11-18T00:28:32;8.60;99.90
45435;DHT22;31183;47.404;8.500;2023-11-18T00:30:58;8.60;99.90
45435;DHT22;31183;47.404;8.500;2023-11-18T00:33:25;8.60;99.90
45435;DHT22;31183;47.404;8.500;2023-11-18T00:35:52;8.60;99.90
45435;DHT22;31183;47.404;8.500;2023-11-18T00:38:18;8.60;99.90
45435;DHT22;31183;47.404;8.500;2023-11-18T00:40:45;8.60;99.90
45435;DHT22;31183;47.404;8.500;2023-11-18T00:43:12;8.70;99.90
45435;DHT22;31183;47.404;8.500;2023-11-18T00:45:39;8.60;99.90
45435;DHT22;31183;47.404;8.500;2023-11-18T00:48:07;8.70;99.90
45435;DHT22;31183;47.404;8.500;2023-11-18T00:50:33;8.70;99.90
45435;DHT22;31183;47.404;8.500;2023-11-18T00:53:00;8.70;99.90
45435;DHT22;31183;47.404;8.500;2023-11-18T00:55:27;8.70;99.90
45435;DHT22;31183;47.404;8.500;2023-11-18T00:57:53;8.70;99.90
45435;DHT22;31183;47.404;8.500;2023-11-18T01:00:20;8.70;99.90
45435;DHT22;31183;47.404;8.500;2023-11-18T01:02:48;8.70;99.90
45435;DHT22;31183;47.404;8.500;2023-11-18T01:05:16;8.70;99.90
45435;DHT22;31183;47.404;8.500;2023-11-18T01:07:43;8.70;99.90
45435;DHT22;31183;47.404;8.500;2023-11-18T01:10:11;8.60;99.90
45435;DHT22;31183;47.404;8.500;2023-11-18T01:12:37;8.60;99.90
45435;DHT22;31183;47.404;8.500;2023-11-18T01:15:05;8.60;99.90
45435;DHT22;31183;47.404;8.500;2023-11-18T01:17:32;8.60;99.90
45435;DHT22;31183;47.404;8.500;2023-11-18T01:19:59;8.60;99.90
45435;DHT22;31183;47.404;8.500;2023-11-18T01:22:27;8.60;99.90
45435;DHT22;31183;47.404;8.500;2023-11-18T01:24:54;8.60;99.90
45435;DHT22;31183;47.404;8.500;2023-11-18T01:27:21;8.60;99.90
45435;DHT22;31183;47.404;8.500;2023-11-18T01:29:49;8.60;99.90
45435;DHT22;31183;47.404;8.500;2023-11-18T01:32:15;8.60;99.90
45435;DHT22;31183;47.404;8.500;2023-11-18T01:34:43;8.60;99.90
45435;DHT22;31183;47.404;8.500;2023-11-18T01:37:16;8.60;99.90
45435;DHT22;31183;47.404;8.500;2023-11-18T01:39:43;8.60;99.90
45435;DHT22;31183;47.404;8.500;2023-11-18T01:42:10;8.60;99.90
45435;DHT22;31183;47.404;8.500;2023-11-18T01:44:38;8.60;99.90
45435;DHT22;31183;47.404;8.500;2023-11-18T01:47:06;8.60;99.90
45435;DHT22;31183;47.404;8.500;2023-11-18T01:49:35;8.60;99.90
45435;DHT22;31183;47.404;8.500;2023-11-18T01:52:10;8.60;99.90
45435;DHT22;31183;47.404;8.500;2023-11-18T01:54:37;8.50;99.90
45435;DHT22;31183;47.404;8.500;2023-11-18T01:57:05;8.60;99.90
45435;DHT22;31183;47.404;8.500;2023-11-18T01:59:33;8.50;99.90
45435;DHT22;31183;47.404;8.500;2023-11-18T02:02:00;8.60;99.90
45435;DHT22;31183;47.404;8.500;2023-11-18T02:04:28;8.50;99.90
45435;DHT22;31183;47.404;8.500;2023-11-18T02:06:56;8.50;99.90
45435;DHT22;31183;47.404;8.500;2023-11-18T02:09:23;8.50;99.90
45435;DHT22;31183;47.404;8.500;2023-11-18T02:14:45;8.50;99.90
45435;DHT22;31183;47.404;8.500;2023-11-18T02:17:14;8.50;99.90
45435;DHT22;31183;47.404;8.500;2023-11-18T02:19:41;8.50;99.90
45435;DHT22;31183;47.404;8.500;2023-11-18T02:22:09;8.40;99.90
45435;DHT22;31183;47.404;8.500;2023-11-18T02:24:38;8.40;99.90
45435;DHT22;31183;47.404;8.500;2023-11-18T02:27:07;8.40;99.90
45435;DHT22;31183;47.404;8.500;2023-11-18T02:29:38;8.40;99.90
45435;DHT22;31183;47.404;8.500;2023-11-18T02:32:30;8.40;99.90
45435;DHT22;31183;47.404;8.500;2023-11-18T02:37:40;8.30;99.90
45435;DHT22;31183;47.404;8.500;2023-11-18T02:40:11;8.30;99.90
45435;DHT22;31183;47.404;8.500;2023-11-18T02:42:42;8.30;99.90
45435;DHT22;31183;47.404;8.500;2023-11-18T02:45:12;8.30;99.90
45435;DHT22;31183;47.404;8.500;2023-11-18T02:47:46;8.30;99.90
45435;DHT22;31183;47.404;8.500;2023-11-18T02:50:14;8.30;99.90
45435;DHT22;31183;47.404;8.500;2023-11-18T02:52:42;8.30;99.90
45435;DHT22;31183;47.404;8.500;2023-11-18T02:55:09;8.30;99.90
45435;DHT22;31183;47.404;8.500;2023-11-18T02:57:36;8.30;99.90
45435;DHT22;31183;47.404;8.500;2023-11-18T03:00:06;8.20;99.90
45435;DHT22;31183;47.404;8.500;2023-11-18T03:02:39;8.20;99.90
45435;DHT22;31183;47.404;8.500;2023-11-18T03:05:07;8.20;99.90
45435;DHT22;31183;47.404;8.500;2023-11-18T03:07:34;8.20;99.90
45435;DHT22;31183;47.404;8.500;2023-11-18T03:10:00;8.20;99.90
45435;DHT22;31183;47.404;8.500;2023-11-18T03:12:27;8.20;99.90
45435;DHT22;31183;47.404;8.500;2023-11-18T03:14:54;8.10;99.90
45435;DHT22;31183;47.404;8.500;2023-11-18T03:17:21;8.10;99.90
45435;DHT22;31183;47.404;8.500;2023-11-18T03:19:48;8.10;99.90
45435;DHT22;31183;47.404;8.500;2023-11-18T03:22:17;8.10;99.90
45435;DHT22;31183;47.404;8.500;2023-11-18T03:24:43;8.20;99.90
45435;DHT22;31183;47.404;8.500;2023-11-18T03:27:10;8.20;99.90
45435;DHT22;31183;47.404;8.500;2023-11-18T03:29:36;8.10;99.90
45435;DHT22;31183;47.404;8.500;2023-11-18T03:32:03;8.10;99.90
45435;DHT22;31183;47.404;8.500;2023-11-18T03:34:31;8.10;99.90
45435;DHT22;31183;47.404;8.500;2023-11-18T03:36:59;8.10;99.90
45435;DHT22;31183;47.404;8.500;2023-11-18T03:39:25;8.10;99.90
45435;DHT22;31183;47.404;8.500;2023-11-18T03:41:54;8.00;99.90
45435;DHT22;31183;47.404;8.500;2023-11-18T03:44:20;8.00;99.90
45435;DHT22;31183;47.404;8.500;2023-11-18T03:46:47;8.00;99.90
45435;DHT22;31183;47.404;8.500;2023-11-18T03:49:14;8.00;99.90
45435;DHT22;31183;47.404;8.500;2023-11-18T03:51:40;8.00;99.90
45435;DHT22;31183;47.404;8.500;2023-11-18T03:54:07;8.00;99.90
45435;DHT22;31183;47.404;8.500;2023-11-18T03:56:36;8.00;99.90
45435;DHT22;31183;47.404;8.500;2023-11-18T03:59:03;8.00;99.90
45435;DHT22;31183;47.404;8.500;2023-11-18T04:01:31;8.00;99.90
45435;DHT22;31183;47.404;8.500;2023-11-18T04:03:59;8.00;99.90
45435;DHT22;31183;47.404;8.500;2023-11-18T04:06:26;8.00;99.90
45435;DHT22;31183;47.404;8.500;2023-11-18T04:08:52;8.00;99.90
45435;DHT22;31183;47.404;8.500;2023-11-18T04:11:20;8.00;99.90
45435;DHT22;31183;47.404;8.500;2023-11-18T04:13:46;8.00;99.90
45435;DHT22;31183;47.404;8.500;2023-11-18T04:16:13;8.00;99.90
45435;DHT22;31183;47.404;8.500;2023-11-18T04:18:43;7.90;99.90
45435;DHT22;31183;47.404;8.500;2023-11-18T04:21:11;7.90;99.90
45435;DHT22;31183;47.404;8.500;2023-11-18T04:23:38;7.90;99.90
45435;DHT22;31183;47.404;8.500;2023-11-18T04:26:06;7.90;99.90
45435;DHT22;31183;47.404;8.500;2023-11-18T04:28:34;7.90;99.90
45435;DHT22;31183;47.404;8.500;2023-11-18T04:31:01;7.90;99.90
45435;DHT22;31183;47.404;8.500;2023-11-18T04:33:29;7.90;99.90
45435;DHT22;31183;47.404;8.500;2023-11-18T04:35:56;7.90;99.90
45435;DHT22;31183;47.404;8.500;2023-11-18T04:38:26;7.90;99.90
45435;DHT22;31183;47.404;8.500;2023-11-18T04:40:53;7.90;99.90
45435;DHT22;31183;47.404;8.500;2023-11-18T04:43:23;7.90;99.90
45435;DHT22;31183;47.404;8.500;2023-11-18T04:46:05;7.90;99.90
45435;DHT22;31183;47.404;8.500;2023-11-18T04:48:32;7.90;99.90
45435;DHT22;31183;47.404;8.500;2023-11-18T04:51:00;7.90;99.90
45435;DHT22;31183;47.404;8.500;2023-11-18T04:53:26;7.90;99.90
45435;DHT22;31183;47.404;8.500;2023-11-18T04:55:53;7.90;99.90
45435;DHT22;31183;47.404;8.500;2023-11-18T04:58:20;7.90;99.90
45435;DHT22;31183;47.404;8.500;2023-11-18T05:00:47;7.90;99.90
45435;DHT22;31183;47.404;8.500;2023-11-18T05:03:16;7.90;99.90
45435;DHT22;31183;47.404;8.500;2023-11-18T05:05:43;7.90;99.90
45435;DHT22;31183;47.404;8.500;2023-11-18T05:08:20;7.80;99.90
45435;DHT22;31183;47.404;8.500;2023-11-18T05:10:48;7.80;99.90
45435;DHT22;31183;47.404;8.500;2023-11-18T05:13:16;7.80;99.90
45435;DHT22;31183;47.404;8.500;2023-11-18T05:15:43;7.80;99.90
45435;DHT22;31183;47.404;8.500;2023-11-18T05:18:12;7.80;99.90
45435;DHT22;31183;47.404;8.500;2023-11-18T05:20:41;7.80;99.90
45435;DHT22;31183;47.404;8.500;2023-11-18T05:23:08;7.80;99.90
45435;DHT22;31183;47.404;8.500;2023-11-18T05:25:37;7.80;99.90
45435;DHT22;31183;47.404;8.500;2023-11-18T05:28:04;7.80;99.90
45435;DHT22;31183;47.404;8.500;2023-11-18T05:30:31;7.70;99.90
45435;DHT22;31183;47.404;8.500;2023-11-18T05:32:58;7.80;99.90
45435;DHT22;31183;47.404;8.500;2023-11-18T05:35:25;7.80;99.90
45435;DHT22;31183;47.404;8.500;2023-11-18T05:37:55;7.80;99.90
45435;DHT22;31183;47.404;8.500;2023-11-18T05:40:22;7.70;99.90
45435;DHT22;31183;47.404;8.500;2023-11-18T05:42:49;7.70;99.90
45435;DHT22;31183;47.404;8.500;2023-11-18T05:45:18;7.70;99.90
45435;DHT22;31183;47.404;8.500;2023-11-18T05:47:55;7.70;99.90
45435;DHT22;31183;47.404;8.500;2023-11-18T05:50:23;7.70;99.90
45435;DHT22;31183;47.404;8.500;2023-11-18T05:52:51;7.70;99.90
45435;DHT22;31183;47.404;8.500;2023-11-18T05:55:18;7.70;99.90
45435;DHT22;31183;47.404;8.500;2023-11-18T05:57:45;7.70;99.90
45435;DHT22;31183;47.404;8.500;2023-11-18T06:00:12;7.70;99.90
45435;DHT22;31183;47.404;8.500;2023-11-18T06:02:50;7.60;99.90
45435;DHT22;31183;47.404;8.500;2023-11-18T06:05:18;7.70;99.90
45435;DHT22;31183;47.404;8.500;2023-11-18T06:07:45;7.60;99.90
45435;DHT22;31183;47.404;8.500;2023-11-18T06:10:13;7.60;99.90
45435;DHT22;31183;47.404;8.500;2023-11-18T06:12:40;7.60;99.90
45435;DHT22;31183;47.404;8.500;2023-11-18T06:15:07;7.60;99.90
45435;DHT22;31183;47.404;8.500;2023-11-18T06:17:36;7.60;99.90
45435;DHT22;31183;47.404;8.500;2023-11-18T06:20:04;7.60;99.90
45435;DHT22;31183;47.404;8.500;2023-11-18T06:22:33;7.50;99.90
45435;DHT22;31183;47.404;8.500;2023-11-18T06:24:59;7.50;99.90
45435;DHT22;31183;47.404;8.500;2023-11-18T06:27:27;7.50;99.90
45435;DHT22;31183;47.404;8.500;2023-11-18T06:29:54;7.50;99.90
45435;DHT22;31183;47.404;8.500;2023-11-18T06:32:21;7.50;99.90
45435;DHT22;31183;47.404;8.500;2023-11-18T06:34:48;7.50;99.90
45435;DHT22;31183;47.404;8.500;2023-11-18T06:37:16;7.50;99.90
45435;DHT22;31183;47.404;8.500;2023-11-18T06:39:43;7.50;99.90
45435;DHT22;31183;47.404;8.500;2023-11-18T06:42:15;7.50;99.90
45435;DHT22;31183;47.404;8.500;2023-11-18T06:44:41;7.50;99.90
45435;DHT22;31183;47.404;8.500;2023-11-18T06:47:08;7.40;99.90
45435;DHT22;31183;47.404;8.500;2023-11-18T06:49:35;7.40;99.90
45435;DHT22;31183;47.404;8.500;2023-11-18T06:52:03;7.40;99.90
45435;DHT22;31183;47.404;8.500;2023-11-18T06:54:30;7.40;99.90
45435;DHT22;31183;47.404;8.500;2023-11-18T06:56:59;7.40;99.90
45435;DHT22;31183;47.404;8.500;2023-11-18T06:59:26;7.40;99.90
45435;DHT22;31183;47.404;8.500;2023-11-18T07:01:53;7.40;99.90
45435;DHT22;31183;47.404;8.500;2023-11-18T07:04:20;7.40;99.90
45435;DHT22;31183;47.404;8.500;2023-11-18T07:06:46;7.40;99.90
45435;DHT22;31183;47.404;8.500;2023-11-18T07:09:13;7.50;99.90
45435;DHT22;31183;47.404;8.500;2023-11-18T07:11:43;7.50;99.90
45435;DHT22;31183;47.404;8.500;2023-11-18T07:14:11;7.50;99.90
45435;DHT22;31183;47.404;8.500;2023-11-18T07:16:39;7.50;99.90
45435;DHT22;31183;47.404;8.500;2023-11-18T07:19:07;7.50;99.90
45435;DHT22;31183;47.404;8.500;2023-11-18T07:21:34;7.50;99.90
45435;DHT22;31183;47.404;8.500;2023-11-18T07:24:01;7.60;99.90
45435;DHT22;31183;47.404;8.500;2023-11-18T07:26:29;7.60;99.90
45435;DHT22;31183;47.404;8.500;2023-11-18T07:28:56;7.70;99.90
45435;DHT22;31183;47.404;8.500;2023-11-18T07:31:22;7.70;99.90
45435;DHT22;31183;47.404;8.500;2023-11-18T07:33:49;7.70;99.90
45435;DHT22;31183;47.404;8.500;2023-11-18T07:36:17;7.70;99.90
45435;DHT22;31183;47.404;8.500;2023-11-18T07:38:46;7.80;99.90
45435;DHT22;31183;47.404;8.500;2023-11-18T07:41:13;7.80;99.90
45435;DHT22;31183;47.404;8.500;2023-11-18T07:43:58;7.90;99.90
45435;DHT22;31183;47.404;8.500;2023-11-18T07:46:25;8.00;99.90
45435;DHT22;31183;47.404;8.500;2023-11-18T07:48:52;8.10;99.90
45435;DHT22;31183;47.404;8.500;2023-11-18T07:51:20;8.20;99.90
45435;DHT22;31183;47.404;8.500;2023-11-18T07:53:50;8.30;99.90
45435;DHT22;31183;47.404;8.500;2023-11-18T07:56:17;8.40;99.90
45435;DHT22;31183;47.404;8.500;2023-11-18T07:58:44;8.50;99.90
45435;DHT22;31183;47.404;8.500;2023-11-18T08:01:14;8.60;99.90
45435;DHT22;31183;47.404;8.500;2023-11-18T08:03:44;8.70;99.90
45435;DHT22;31183;47.404;8.500;2023-11-18T08:06:11;8.70;99.90
45435;DHT22;31183;47.404;8.500;2023-11-18T08:08:38;8.80;99.90
45435;DHT22;31183;47.404;8.500;2023-11-18T08:11:06;8.80;99.90
45435;DHT22;31183;47.404;8.500;2023-11-18T08:13:33;8.80;99.90
45435;DHT22;31183;47.404;8.500;2023-11-18T08:16:00;8.70;99.90
45435;DHT22;31183;47.404;8.500;2023-11-18T08:18:27;8.70;99.90
45435;DHT22;31183;47.404;8.500;2023-11-18T08:20:55;8.60;99.90
45435;DHT22;31183;47.404;8.500;2023-11-18T08:23:23;8.60;99.90
45435;DHT22;31183;47.404;8.500;2023-11-18T08:25:51;8.60;99.90
45435;DHT22;31183;47.404;8.500;2023-11-18T08:28:18;8.60;99.90
45435;DHT22;31183;47.404;8.500;2023-11-18T08:30:44;8.50;99.90
45435;DHT22;31183;47.404;8.500;2023-11-18T08:33:11;8.40;99.90
45435;DHT22;31183;47.404;8.500;2023-11-18T08:35:38;8.40;99.90
45435;DHT22;31183;47.404;8.500;2023-11-18T08:38:06;8.40;99.90
45435;DHT22;31183;47.404;8.500;2023-11-18T08:40:34;8.50;99.90
45435;DHT22;31183;47.404;8.500;2023-11-18T08:43:02;8.60;99.90
45435;DHT22;31183;47.404;8.500;2023-11-18T08:45:33;8.70;99.90
45435;DHT22;31183;47.404;8.500;2023-11-18T08:48:02;8.70;99.90
45435;DHT22;31183;47.404;8.500;2023-11-18T08:50:30;8.70;99.90
45435;DHT22;31183;47.404;8.500;2023-11-18T08:52:57;8.70;99.90
45435;DHT22;31183;47.404;8.500;2023-11-18T08:55:29;8.80;99.90
45435;DHT22;31183;47.404;8.500;2023-11-18T08:58:07;8.90;99.90
45435;DHT22;31183;47.404;8.500;2023-11-18T09:00:51;9.00;99.90
45435;DHT22;31183;47.404;8.500;2023-11-18T09:03:24;9.00;99.90
45435;DHT22;31183;47.404;8.500;2023-11-18T09:05:56;9.10;99.90
45435;DHT22;31183;47.404;8.500;2023-11-18T09:08:28;9.20;99.90
45435;DHT22;31183;47.404;8.500;2023-11-18T09:10:57;9.20;99.90
45435;DHT22;31183;47.404;8.500;2023-11-18T09:13:25;9.20;99.90
45435;DHT22;31183;47.404;8.500;2023-11-18T09:15:56;9.10;99.90
45435;DHT22;31183;47.404;8.500;2023-11-18T09:18:24;9.20;99.90
45435;DHT22;31183;47.404;8.500;2023-11-18T09:20:51;9.20;99.90
45435;DHT22;31183;47.404;8.500;2023-11-18T09:23:20;9.20;99.90
45435;DHT22;31183;47.404;8.500;2023-11-18T09:25:47;9.30;99.90
45435;DHT22;31183;47.404;8.500;2023-11-18T09:28:17;9.30;99.90
45435;DHT22;31183;47.404;8.500;2023-11-18T09:30:47;9.30;99.90
45435;DHT22;31183;47.404;8.500;2023-11-18T09:33:21;9.40;99.90
45435;DHT22;31183;47.404;8.500;2023-11-18T09:35:56;9.40;99.90
45435;DHT22;31183;47.404;8.500;2023-11-18T09:38:29;9.30;99.90
45435;DHT22;31183;47.404;8.500;2023-11-18T09:40:57;9.30;99.90
45435;DHT22;31183;47.404;8.500;2023-11-18T09:43:35;9.30;99.90
45435;DHT22;31183;47.404;8.500;2023-11-18T09:49:06;9.30;99.90
45435;DHT22;31183;47.404;8.500;2023-11-18T09:51:42;9.30;99.90
45435;DHT22;31183;47.404;8.500;2023-11-18T09:54:20;9.30;99.90
45435;DHT22;31183;47.404;8.500;2023-11-18T09:57:03;9.30;99.90
45435;DHT22;31183;47.404;8.500;2023-11-18T10:00:03;9.30;99.90
45435;DHT22;31183;47.404;8.500;2023-11-18T10:02:53;9.30;99.90
45435;DHT22;31183;47.404;8.500;2023-11-18T10:05:23;9.20;99.90
45435;DHT22;31183;47.404;8.500;2023-11-18T10:07:53;9.20;99.90
45435;DHT22;31183;47.404;8.500;2023-11-18T10:10:20;9.20;99.90
45435;DHT22;31183;47.404;8.500;2023-11-18T10:12:48;9.20;99.90
45435;DHT22;31183;47.404;8.500;2023-11-18T10:15:25;9.20;99.90
45435;DHT22;31183;47.404;8.500;2023-11-18T10:17:52;9.20;99.90
45435;DHT22;31183;47.404;8.500;2023-11-18T10:20:44;9.20;99.90
45435;DHT22;31183;47.404;8.500;2023-11-18T10:23:13;9.20;99.90
45435;DHT22;31183;47.404;8.500;2023-11-18T10:25:52;9.20;99.90
45435;DHT22;31183;47.404;8.500;2023-11-18T10:28:33;9.20;99.90
45435;DHT22;31183;47.404;8.500;2023-11-18T10:31:04;9.20;99.90
45435;DHT22;31183;47.404;8.500;2023-11-18T10:33:39;9.20;99.90
45435;DHT22;31183;47.404;8.500;2023-11-18T10:36:22;9.20;99.90
45435;DHT22;31183;47.404;8.500;2023-11-18T10:38:52;9.30;99.90
45435;DHT22;31183;47.404;8.500;2023-11-18T10:41:22;9.30;99.90
45435;DHT22;31183;47.404;8.500;2023-11-18T10:44:07;9.30;99.90
45435;DHT22;31183;47.404;8.500;2023-11-18T10:46:50;9.20;99.90
45435;DHT22;31183;47.404;8.500;2023-11-18T10:49:22;9.20;99.90
45435;DHT22;31183;47.404;8.500;2023-11-18T10:51:51;9.20;99.90
45435;DHT22;31183;47.404;8.500;2023-11-18T10:54:18;9.30;99.90
45435;DHT22;31183;47.404;8.500;2023-11-18T10:56:49;9.30;99.90
45435;DHT22;31183;47.404;8.500;2023-11-18T10:59:16;9.30;99.90
45435;DHT22;31183;47.404;8.500;2023-11-18T11:01:45;9.30;99.90
45435;DHT22;31183;47.404;8.500;2023-11-18T11:04:12;9.30;99.90
45435;DHT22;31183;47.404;8.500;2023-11-18T11:06:43;9.30;99.90
45435;DHT22;31183;47.404;8.500;2023-11-18T11:09:09;9.30;99.90
45435;DHT22;31183;47.404;8.500;2023-11-18T11:11:48;9.30;99.90
45435;DHT22;31183;47.404;8.500;2023-11-18T11:14:16;9.40;99.90
45435;DHT22;31183;47.404;8.500;2023-11-18T11:16:52;9.40;99.90
45435;DHT22;31183;47.404;8.500;2023-11-18T11:19:33;9.40;99.90
45435;DHT22;31183;47.404;8.500;2023-11-18T11:22:11;9.30;99.90
45435;DHT22;31183;47.404;8.500;2023-11-18T11:25:24;9.30;99.90
45435;DHT22;31183;47.404;8.500;2023-11-18T11:28:08;9.30;99.90
45435;DHT22;31183;47.404;8.500;2023-11-18T11:30:55;9.30;99.90
45435;DHT22;31183;47.404;8.500;2023-11-18T11:33:39;9.30;99.90
45435;DHT22;31183;47.404;8.500;2023-11-18T11:36:17;9.30;99.90
45435;DHT22;31183;47.404;8.500;2023-11-18T11:38:44;9.30;99.90
45435;DHT22;31183;47.404;8.500;2023-11-18T11:41:13;9.20;99.90
45435;DHT22;31183;47.404;8.500;2023-11-18T11:43:53;9.20;99.90
45435;DHT22;31183;47.404;8.500;2023-11-18T11:46:25;9.20;99.90
45435;DHT22;31183;47.404;8.500;2023-11-18T11:48:54;9.20;99.90
45435;DHT22;31183;47.404;8.500;2023-11-18T11:51:28;9.20;99.90
45435;DHT22;31183;47.404;8.500;2023-11-18T11:54:11;9.20;99.90
45435;DHT22;31183;47.404;8.500;2023-11-18T11:56:48;9.20;99.90
45435;DHT22;31183;47.404;8.500;2023-11-18T12:02:14;9.20;99.90
45435;DHT22;31183;47.404;8.500;2023-11-18T12:04:47;9.20;99.90
45435;DHT22;31183;47.404;8.500;2023-11-18T12:07:19;9.20;99.90
45435;DHT22;31183;47.404;8.500;2023-11-18T12:09:47;9.10;99.90
45435;DHT22;31183;47.404;8.500;2023-11-18T12:12:18;9.10;99.90
45435;DHT22;31183;47.404;8.500;2023-11-18T12:14:57;9.10;99.90
45435;DHT22;31183;47.404;8.500;2023-11-18T12:17:24;9.10;99.90
45435;DHT22;31183;47.404;8.500;2023-11-18T12:19:55;9.10;99.90
45435;DHT22;31183;47.404;8.500;2023-11-18T12:23:02;9.10;99.90
45435;DHT22;31183;47.404;8.500;2023-11-18T12:25:30;9.10;99.90
45435;DHT22;31183;47.404;8.500;2023-11-18T12:28:07;9.00;99.90
45435;DHT22;31183;47.404;8.500;2023-11-18T12:33:04;9.00;99.90
45435;DHT22;31183;47.404;8.500;2023-11-18T12:41:37;9.00;99.90
45435;DHT22;31183;47.404;8.500;2023-11-18T12:47:06;8.90;99.90
45435;DHT22;31183;47.404;8.500;2023-11-18T12:49:48;8.90;99.90
45435;DHT22;31183;47.404;8.500;2023-11-18T12:52:22;8.80;99.90
45435;DHT22;31183;47.404;8.500;2023-11-18T12:54:49;8.90;99.90
45435;DHT22;31183;47.404;8.500;2023-11-18T12:57:27;8.90;99.90
45435;DHT22;31183;47.404;8.500;2023-11-18T12:59:59;8.90;99.90
45435;DHT22;31183;47.404;8.500;2023-11-18T13:02:27;8.90;99.90
45435;DHT22;31183;47.404;8.500;2023-11-18T13:04:55;8.90;99.90
45435;DHT22;31183;47.404;8.500;2023-11-18T13:07:22;8.80;99.90
45435;DHT22;31183;47.404;8.500;2023-11-18T13:09:48;8.90;99.90
45435;DHT22;31183;47.404;8.500;2023-11-18T13:12:17;8.90;99.90
45435;DHT22;31183;47.404;8.500;2023-11-18T13:14:46;8.90;99.90
45435;DHT22;31183;47.404;8.500;2023-11-18T13:17:15;8.90;99.90
45435;DHT22;31183;47.404;8.500;2023-11-18T13:19:45;8.90;99.90
45435;DHT22;31183;47.404;8.500;2023-11-18T13:22:12;9.00;99.90
45435;DHT22;31183;47.404;8.500;2023-11-18T13:24:41;9.00;99.90
45435;DHT22;31183;47.404;8.500;2023-11-18T13:27:18;9.00;99.90
45435;DHT22;31183;47.404;8.500;2023-11-18T13:29:47;9.00;99.90
45435;DHT22;31183;47.404;8.500;2023-11-18T13:32:20;9.00;99.90
45435;DHT22;31183;47.404;8.500;2023-11-18T13:34:52;8.90;99.90
45435;DHT22;31183;47.404;8.500;2023-11-18T13:37:19;9.00;99.90
45435;DHT22;31183;47.404;8.500;2023-11-18T13:39:55;8.90;99.90
45435;DHT22;31183;47.404;8.500;2023-11-18T13:42:23;8.90;99.90
45435;DHT22;31183;47.404;8.500;2023-11-18T13:44:50;8.90;99.90
45435;DHT22;31183;47.404;8.500;2023-11-18T13:47:20;8.90;99.90
45435;DHT22;31183;47.404;8.500;2023-11-18T13:49:50;8.90;99.90
45435;DHT22;31183;47.404;8.500;2023-11-18T13:52:17;9.00;99.90
45435;DHT22;31183;47.404;8.500;2023-11-18T13:54:46;9.00;99.90
45435;DHT22;31183;47.404;8.500;2023-11-18T13:57:13;9.10;99.90
45435;DHT22;31183;47.404;8.500;2023-11-18T13:59:40;9.10;99.90
45435;DHT22;31183;47.404;8.500;2023-11-18T14:02:11;9.10;99.90
45435;DHT22;31183;47.404;8.500;2023-11-18T14:04:39;9.10;99.90
45435;DHT22;31183;47.404;8.500;2023-11-18T14:07:06;9.10;99.90
45435;DHT22;31183;47.404;8.500;2023-11-18T14:09:36;9.00;99.90
45435;DHT22;31183;47.404;8.500;2023-11-18T14:12:07;9.00;99.90
45435;DHT22;31183;47.404;8.500;2023-11-18T14:14:34;9.00;99.90
45435;DHT22;31183;47.404;8.500;2023-11-18T14:17:01;9.00;99.90
45435;DHT22;31183;47.404;8.500;2023-11-18T14:19:30;9.00;99.90
45435;DHT22;31183;47.404;8.500;2023-11-18T14:21:56;9.00;99.90
45435;DHT22;31183;47.404;8.500;2023-11-18T14:24:23;9.00;99.90
45435;DHT22;31183;47.404;8.500;2023-11-18T14:26:54;8.90;99.90
45435;DHT22;31183;47.404;8.500;2023-11-18T14:29:23;8.90;99.90
45435;DHT22;31183;47.404;8.500;2023-11-18T14:31:53;8.80;99.90
45435;DHT22;31183;47.404;8.500;2023-11-18T14:34:21;8.80;99.90
45435;DHT22;31183;47.404;8.500;2023-11-18T14:36:47;8.80;99.90
45435;DHT22;31183;47.404;8.500;2023-11-18T14:39:15;8.80;99.90
45435;DHT22;31183;47.404;8.500;2023-11-18T14:41:45;8.70;99.90
45435;DHT22;31183;47.404;8.500;2023-11-18T14:44:12;8.70;99.90
45435;DHT22;31183;47.404;8.500;2023-11-18T14:46:39;8.70;99.90
45435;DHT22;31183;47.404;8.500;2023-11-18T14:49:07;8.60;99.90
45435;DHT22;31183;47.404;8.500;2023-11-18T14:51:36;8.60;99.90
45435;DHT22;31183;47.404;8.500;2023-11-18T14:54:03;8.60;99.90
45435;DHT22;31183;47.404;8.500;2023-11-18T14:56:32;8.60;99.90
45435;DHT22;31183;47.404;8.500;2023-11-18T14:58:58;8.60;99.90
45435;DHT22;31183;47.404;8.500;2023-11-18T15:01:26;8.60;99.90
45435;DHT22;31183;47.404;8.500;2023-11-18T15:03:53;8.60;99.90
45435;DHT22;31183;47.404;8.500;2023-11-18T15:06:26;8.60;99.90
45435;DHT22;31183;47.404;8.500;2023-11-18T15:08:53;8.70;99.90
45435;DHT22;31183;47.404;8.500;2023-11-18T15:11:24;8.60;99.90
45435;DHT22;31183;47.404;8.500;2023-11-18T15:13:51;8.60;99.90
45435;DHT22;31183;47.404;8.500;2023-11-18T15:16:19;8.60;99.90
45435;DHT22;31183;47.404;8.500;2023-11-18T15:18:46;8.70;99.90
45435;DHT22;31183;47.404;8.500;2023-11-18T15:21:14;8.70;99.90
45435;DHT22;31183;47.404;8.500;2023-11-18T15:23:41;8.70;99.90
45435;DHT22;31183;47.404;8.500;2023-11-18T15:26:08;8.60;99.90
45435;DHT22;31183;47.404;8.500;2023-11-18T15:28:36;8.70;99.90
45435;DHT22;31183;47.404;8.500;2023-11-18T15:31:03;8.70;99.90
45435;DHT22;31183;47.404;8.500;2023-11-18T15:33:30;8.70;99.90
45435;DHT22;31183;47.404;8.500;2023-11-18T15:35:57;8.70;99.90
45435;DHT22;31183;47.404;8.500;2023-11-18T15:38:24;8.70;99.90
45435;DHT22;31183;47.404;8.500;2023-11-18T15:40:51;8.60;99.90
45435;DHT22;31183;47.404;8.500;2023-11-18T15:43:18;8.70;99.90
45435;DHT22;31183;47.404;8.500;2023-11-18T15:45:45;8.60;99.90
45435;DHT22;31183;47.404;8.500;2023-11-18T15:48:11;8.70;99.90
45435;DHT22;31183;47.404;8.500;2023-11-18T15:50:38;8.60;99.90
45435;DHT22;31183;47.404;8.500;2023-11-18T15:53:05;8.60;99.90
45435;DHT22;31183;47.404;8.500;2023-11-18T15:55:34;8.60;99.90
45435;DHT22;31183;47.404;8.500;2023-11-18T15:58:04;8.60;99.90
45435;DHT22;31183;47.404;8.500;2023-11-18T16:00:31;8.60;99.90
45435;DHT22;31183;47.404;8.500;2023-11-18T16:02:58;8.60;99.90
45435;DHT22;31183;47.404;8.500;2023-11-18T16:05:29;8.70;99.90
45435;DHT22;31183;47.404;8.500;2023-11-18T16:08:01;8.60;99.90
45435;DHT22;31183;47.404;8.500;2023-11-18T16:10:28;8.60;99.90
45435;DHT22;31183;47.404;8.500;2023-11-18T16:12:58;8.70;99.90
45435;DHT22;31183;47.404;8.500;2023-11-18T16:15:26;8.70;99.90
45435;DHT22;31183;47.404;8.500;2023-11-18T16:17:55;8.70;99.90
45435;DHT22;31183;47.404;8.500;2023-11-18T16:20:25;8.70;99.90
45435;DHT22;31183;47.404;8.500;2023-11-18T16:22:54;8.70;99.90